Time;durP1;ratioP1;P1;durP2;ratioP2;P2;SDS_P1;SDS_P2;PMS_P1;PMS_P2;Temp;Humidity;BMP_temperature;BMP_pressure;BME280_temperature;BME280_humidity;BME280_pressure;Samples;Min_cycle;Max_cycle;Signal;HPM_P1;HPM_P2
2021/07/24 00:04:04;;;;;;;14.52;11.55;;;;;;;15.04;80.04;101233.78;10455384;28;20072;-61
2021/07/24 00:09:19;;;;;;;15.80;11.85;;;;;;;15.07;79.76;101230.94;10455199;28;20049;-62
2021/07/24 00:14:22;;;;;;;19.88;12.77;;;;;;;15.19;79.47;101229.22;10456354;28;20041;-61
2021/07/24 00:19:24;;;;;;;18.05;12.75;;;;;;;15.16;79.55;101224.16;10461612;28;20550;-63
2021/07/24 00:24:27;;;;;;;18.05;12.65;;;;;;;14.99;80.52;101218.28;10464762;28;20059;-61
2021/07/24 00:29:29;;;;;;;19.30;14.00;;;;;;;15.08;80.06;101223.84;10464421;28;20045;-62
2021/07/24 00:34:32;;;;;;;19.25;12.95;;;;;;;15.27;79.49;101210.25;10464057;28;20057;-61
2021/07/24 00:39:34;;;;;;;18.88;13.52;;;;;;;15.15;79.17;101202.22;10463830;28;20048;-61
2021/07/24 00:44:38;;;;;;;19.73;12.68;;;;;;;15.38;78.86;101211.16;10464013;28;20056;-61
2021/07/24 00:49:40;;;;;;;20.73;13.80;;;;;;;15.21;79.70;101209.72;10463301;28;20052;-61
2021/07/24 00:54:42;;;;;;;18.17;13.63;;;;;;;15.14;79.41;101215.53;10462282;28;20049;-61
2021/07/24 00:59:45;;;;;;;20.35;14.73;;;;;;;15.14;79.70;101213.72;10463116;28;20049;-61
2021/07/24 01:04:47;;;;;;;22.48;14.52;;;;;;;15.30;79.03;101202.94;10461964;28;20053;-61
2021/07/24 01:09:49;;;;;;;19.70;14.02;;;;;;;15.20;79.86;101194.84;10461595;28;20053;-61
2021/07/24 01:14:52;;;;;;;24.05;13.82;;;;;;;15.22;79.52;101185.03;10461485;28;20053;-62
2021/07/24 01:19:54;;;;;;;20.50;15.02;;;;;;;15.04;80.22;101183.69;10461120;28;20046;-61
2021/07/24 01:24:56;;;;;;;20.17;14.77;;;;;;;15.06;80.25;101171.22;10460662;28;20053;-61
2021/07/24 01:29:59;;;;;;;24.05;16.58;;;;;;;15.20;79.70;101162.34;10461265;28;20049;-62
2021/07/24 01:35:01;;;;;;;25.08;15.85;;;;;;;14.98;80.50;101152.50;10459920;28;20045;-61
2021/07/24 01:40:05;;;;;;;22.83;14.68;;;;;;;15.03;80.55;101153.00;10457907;28;20057;-62
2021/07/24 01:45:07;;;;;;;23.65;16.70;;;;;;;15.14;79.45;101157.50;10459210;28;20126;-61
2021/07/24 01:55:53;;;;;;;21.58;14.93;;;;;;;14.89;80.26;101140.78;10459326;28;20068;-61
2021/07/24 02:00:58;;;;;;;24.70;16.00;;;;;;;14.89;80.78;101139.94;10457589;28;20056;-61
2021/07/24 02:06:00;;;;;;;25.55;17.23;;;;;;;14.97;80.62;101134.97;10458240;28;20555;-62
2021/07/24 02:11:04;;;;;;;21.73;16.02;;;;;;;14.64;81.00;101142.50;10456899;28;20047;-61
2021/07/24 02:16:06;;;;;;;25.48;16.38;;;;;;;14.75;81.00;101147.00;10457862;28;20051;-61
2021/07/24 02:21:10;;;;;;;23.10;15.23;;;;;;;14.77;80.35;101145.09;10458109;28;20052;-61
2021/07/24 02:26:12;;;;;;;23.85;15.80;;;;;;;14.40;81.73;101136.22;10458112;28;20056;-61
2021/07/24 02:31:15;;;;;;;19.92;14.32;;;;;;;14.58;81.13;101134.97;10419305;28;1126555;-61
2021/07/24 02:36:17;;;;;;;22.98;15.85;;;;;;;14.25;81.96;101112.63;10459431;28;20052;-61
2021/07/24 02:41:19;;;;;;;23.42;15.95;;;;;;;14.29;81.79;101106.22;10459023;28;20400;-61
2021/07/24 02:46:22;;;;;;;27.17;17.35;;;;;;;14.38;82.44;101114.44;10457610;28;20432;-61
2021/07/24 02:51:24;;;;;;;26.65;17.13;;;;;;;14.44;81.18;101101.69;10459221;28;20041;-61
2021/07/24 02:56:26;;;;;;;28.20;16.83;;;;;;;14.35;81.93;101083.03;10458829;28;20064;-61
2021/07/24 03:01:29;;;;;;;22.02;14.90;;;;;;;14.26;82.71;101064.28;10458536;28;20045;-62
2021/07/24 03:06:31;;;;;;;27.65;16.95;;;;;;;14.35;81.93;101068.06;10458456;28;20045;-62
2021/07/24 03:11:34;;;;;;;23.05;16.58;;;;;;;14.43;82.36;101076.28;10457677;28;20048;-62
2021/07/24 03:16:36;;;;;;;27.08;16.95;;;;;;;14.44;81.69;101056.03;10457297;28;20517;-62
2021/07/24 03:21:39;;;;;;;29.75;19.23;;;;;;;14.20;82.24;101051.50;10457579;28;20047;-61
2021/07/24 03:26:41;;;;;;;25.77;16.60;;;;;;;14.04;82.73;101051.75;10457500;28;20049;-61
2021/07/24 03:31:44;;;;;;;23.20;17.60;;;;;;;14.21;82.36;101047.13;10456423;28;20056;-61
2021/07/24 03:36:46;;;;;;;24.88;17.10;;;;;;;14.15;82.15;101056.25;10455961;28;20053;-62
2021/07/24 03:41:48;;;;;;;27.77;18.48;;;;;;;13.92;83.59;101048.16;10455933;28;20049;-61
2021/07/24 03:46:51;;;;;;;25.10;16.75;;;;;;;13.99;82.71;101031.94;10456696;28;20051;-61
2021/07/24 03:51:53;;;;;;;30.42;18.02;;;;;;;14.08;82.40;101023.41;10456837;28;20051;-61
2021/07/24 03:56:55;;;;;;;24.95;18.00;;;;;;;14.08;83.21;101018.97;10456299;28;20052;-61
2021/07/24 04:01:58;;;;;;;28.23;17.90;;;;;;;14.09;83.43;101006.69;10456424;28;20397;-62
2021/07/24 04:07:01;;;;;;;33.90;20.95;;;;;;;13.91;85.22;101016.66;10456382;28;20087;-62
2021/07/24 04:12:04;;;;;;;30.33;19.75;;;;;;;14.03;84.38;101017.63;10455286;28;20045;-62
2021/07/24 04:17:07;;;;;;;27.35;18.02;;;;;;;14.30;83.28;101039.41;10456176;28;20045;-61
2021/07/24 04:22:09;;;;;;;30.80;19.45;;;;;;;14.43;83.47;101020.13;10456250;28;20079;-61
2021/07/24 04:27:11;;;;;;;24.85;15.50;;;;;;;14.77;81.58;101042.31;10455795;28;20381;-61
2021/07/24 04:32:14;;;;;;;30.08;18.65;;;;;;;14.75;82.14;101044.22;10454488;28;20045;-61
2021/07/24 04:37:16;;;;;;;22.55;15.40;;;;;;;14.83;81.85;101044.53;10455788;28;20489;-62
2021/07/24 04:42:19;;;;;;;26.42;16.38;;;;;;;14.73;82.17;101048.78;10454678;28;20120;-61
2021/07/24 04:47:21;;;;;;;28.17;15.82;;;;;;;14.88;81.69;101052.13;10455391;28;20424;-61
2021/07/24 04:52:24;;;;;;;28.75;17.00;;;;;;;15.27;80.71;101044.06;10456233;28;20045;-62
2021/07/24 04:57:29;;;;;;;24.88;16.23;;;;;;;14.98;82.23;101015.38;10454486;28;20056;-61
2021/07/24 05:02:32;;;;;;;25.50;16.13;;;;;;;15.01;81.65;101000.19;10457132;28;20052;-61
2021/07/24 05:07:35;;;;;;;30.42;18.58;;;;;;;15.00;82.54;100980.03;10461864;28;20052;-62
2021/07/24 05:12:37;;;;;;;24.98;17.63;;;;;;;15.18;81.39;100987.53;10461613;28;20100;-62
2021/07/24 05:17:40;;;;;;;27.02;17.23;;;;;;;14.92;82.68;100995.56;10462781;28;20060;-61
2021/07/24 05:22:42;;;;;;;28.90;16.13;;;;;;;15.44;81.31;101001.44;10461273;28;20075;-62
2021/07/24 05:27:45;;;;;;;29.13;16.55;;;;;;;15.47;80.48;101001.22;10460865;28;20056;-63
2021/07/24 05:32:47;;;;;;;28.55;17.48;;;;;;;15.36;81.03;101003.81;10461518;28;20068;-61
2021/07/24 05:37:49;;;;;;;24.08;15.57;;;;;;;15.94;80.07;100998.59;10461494;28;20049;-61
2021/07/24 05:42:52;;;;;;;29.63;18.67;;;;;;;15.75;80.59;101007.03;10461527;28;20049;-63
2021/07/24 05:47:54;;;;;;;24.25;16.98;;;;;;;16.15;79.30;101011.94;10460846;28;20045;-61
2021/07/24 05:52:56;;;;;;;21.50;16.73;;;;;;;16.15;78.94;100991.66;10461094;28;20053;-61
2021/07/24 05:57:59;;;;;;;28.00;16.85;;;;;;;15.91;80.30;100986.47;10461116;28;20048;-61
2021/07/24 06:03:01;;;;;;;23.55;16.08;;;;;;;16.25;80.05;100960.06;10461319;28;20052;-62
2021/07/24 06:08:04;;;;;;;19.58;14.82;;;;;;;16.12;79.67;100977.84;10460627;28;20059;-62
2021/07/24 06:13:06;;;;;;;19.35;14.48;;;;;;;16.37;78.92;100979.38;10459563;28;20481;-61
2021/07/24 06:18:09;;;;;;;25.92;16.00;;;;;;;16.35;79.83;100970.75;10459185;28;20044;-62
2021/07/24 06:23:11;;;;;;;17.25;12.88;;;;;;;16.61;78.89;100954.59;10460004;28;20049;-62
2021/07/24 06:28:13;;;;;;;19.20;13.30;;;;;;;16.65;78.69;100951.59;10458679;28;20045;-62
2021/07/24 06:33:16;;;;;;;18.88;11.73;;;;;;;17.04;78.06;100957.28;10458540;28;20045;-61
2021/07/24 06:38:18;;;;;;;15.45;11.60;;;;;;;16.80;77.96;100940.75;10458323;28;20076;-61
2021/07/24 06:43:20;;;;;;;16.17;11.40;;;;;;;17.37;76.50;100933.47;10459259;28;20049;-62
2021/07/24 06:48:23;;;;;;;24.98;12.25;;;;;;;17.02;76.86;100930.13;10458776;28;20102;-62
2021/07/24 06:53:37;;;;;;;16.38;11.50;;;;;;;17.34;76.13;100923.13;10459170;28;20052;-61
2021/07/24 06:58:40;;;;;;;17.67;12.57;;;;;;;17.61;76.11;100938.47;10458616;28;20048;-62
2021/07/24 07:03:42;;;;;;;17.23;12.02;;;;;;;17.26;76.05;100921.13;10458868;28;20067;-63
2021/07/24 07:08:44;;;;;;;13.05;9.90;;;;;;;17.75;75.23;100919.63;10458096;28;20049;-63
2021/07/24 07:13:47;;;;;;;16.73;10.50;;;;;;;17.91;74.88;100913.03;10458015;28;20049;-62
2021/07/24 07:18:49;;;;;;;14.55;11.50;;;;;;;18.22;75.25;100912.97;10458189;28;20074;-63
2021/07/24 07:23:51;;;;;;;14.00;10.55;;;;;;;18.23;74.26;100907.56;10457737;28;20051;-63
2021/07/24 07:28:55;;;;;;;22.40;12.32;;;;;;;18.59;74.11;100907.06;10457296;28;20052;-63
2021/07/24 07:33:58;;;;;;;20.10;11.65;;;;;;;18.83;71.91;100888.97;10457144;28;20049;-62
2021/07/24 07:39:00;;;;;;;12.90;9.75;;;;;;;19.05;72.88;100887.03;10456242;28;20049;-62
2021/07/24 07:44:03;;;;;;;19.20;13.60;;;;;;;18.59;72.54;100885.84;10439333;28;20504;-63
2021/07/24 07:49:05;;;;;;;15.88;11.57;;;;;;;19.16;72.34;100867.44;10456693;28;20045;-63
2021/07/24 07:54:07;;;;;;;19.40;12.18;;;;;;;19.25;70.24;100867.44;10456133;28;20060;-62
2021/07/24 07:59:10;;;;;;;18.23;12.27;;;;;;;19.22;71.11;100859.75;10456698;28;20053;-62
2021/07/24 08:04:12;;;;;;;16.27;10.13;;;;;;;20.47;69.16;100837.22;10457184;28;20048;-63
2021/07/24 08:09:14;;;;;;;16.75;11.73;;;;;;;20.26;67.77;100831.34;10456474;28;20488;-62
2021/07/24 08:14:16;;;;;;;16.65;11.60;;;;;;;20.17;67.61;100807.38;10456116;28;20483;-61
2021/07/24 08:19:19;;;;;;;15.73;11.65;;;;;;;21.40;65.82;100806.66;10456267;28;20382;-63
2021/07/24 08:24:21;;;;;;;15.23;9.95;;;;;;;20.84;65.88;100812.28;10456163;28;20428;-61
2021/07/24 08:29:24;;;;;;;12.75;10.75;;;;;;;22.01;63.60;100818.94;10455034;28;20053;-62
2021/07/24 08:34:26;;;;;;;11.52;9.68;;;;;;;21.88;63.82;100816.72;10455903;28;20049;-61
2021/07/24 08:39:28;;;;;;;13.32;9.95;;;;;;;22.60;62.08;100818.06;10461694;28;20055;-62
2021/07/24 08:44:36;;;;;;;12.93;11.02;;;;;;;21.78;65.23;100812.53;10463442;28;20052;-62
2021/07/24 08:49:39;;;;;;;11.18;9.82;;;;;;;22.53;62.60;100825.91;10462108;28;20048;-62
2021/07/24 08:54:42;;;;;;;11.50;9.85;;;;;;;22.75;63.14;100823.56;10463578;28;20052;-61
2021/07/24 08:59:46;;;;;;;13.57;10.45;;;;;;;21.08;64.91;100814.31;10463047;28;20057;-62
2021/07/24 09:04:48;;;;;;;15.07;9.98;;;;;;;23.56;59.63;100811.91;10462955;28;20060;-62
2021/07/24 09:09:51;;;;;;;16.00;11.45;;;;;;;22.31;64.05;100792.69;10462737;28;20047;-61
2021/07/24 09:14:55;;;;;;;16.65;12.15;;;;;;;20.86;66.19;100799.66;10461567;28;20075;-61
2021/07/24 09:19:57;;;;;;;17.83;11.48;;;;;;;21.90;63.81;100792.56;10462375;28;20068;-63
2021/07/24 09:25:08;;;;;;;11.07;9.98;;;;;;;22.37;63.95;100791.19;10461175;28;20413;-63
2021/07/24 09:30:33;;;;;;;14.00;11.45;;;;;;;21.18;66.56;100808.03;10462060;28;20056;-61
2021/07/24 09:35:39;;;;;;;13.82;11.23;;;;;;;22.04;65.49;100807.94;10461789;28;20128;-61
2021/07/24 09:40:43;;;;;;;17.15;11.50;;;;;;;22.13;64.38;100805.31;10461786;28;20053;-61
2021/07/24 09:45:46;;;;;;;16.08;12.10;;;;;;;21.88;65.57;100807.91;10460365;28;20041;-63
2021/07/24 09:50:51;;;;;;;11.32;10.13;;;;;;;21.86;66.49;100820.56;10461273;28;20041;-61
2021/07/24 09:55:53;;;;;;;16.48;10.57;;;;;;;21.95;66.55;100824.06;10461110;28;20049;-62
2021/07/24 10:01:06;;;;;;;15.48;11.43;;;;;;;21.76;65.40;100826.00;10461383;28;20056;-64
2021/07/24 10:06:13;;;;;;;17.17;12.80;;;;;;;21.24;66.92;100856.16;10460933;28;20091;-62
2021/07/24 10:11:16;;;;;;;15.57;12.98;;;;;;;21.57;65.21;100853.75;10460332;28;20055;-62
2021/07/24 10:16:20;;;;;;;13.68;11.77;;;;;;;21.63;66.93;100847.75;10459315;28;20045;-63
2021/07/24 10:21:22;;;;;;;16.90;11.85;;;;;;;21.98;66.05;100847.75;10459355;28;20102;-62
2021/07/24 10:26:29;;;;;;;18.73;11.75;;;;;;;21.92;66.26;100849.22;10459906;28;20041;-64
2021/07/24 10:32:10;;;;;;;12.32;10.38;;;;;;;22.19;66.43;100845.47;10459071;28;20061;-62
2021/07/24 10:37:32;;;;;;;12.70;9.43;;;;;;;22.37;66.47;100839.19;10428287;28;20053;-63
2021/07/24 10:42:38;;;;;;;12.95;10.02;;;;;;;22.43;67.37;100846.56;10455276;28;20045;-63
2021/07/24 10:48:12;;;;;;;14.90;9.70;;;;;;;22.31;68.27;100826.50;10457837;28;20045;-62
2021/07/24 10:53:14;;;;;;;11.65;10.45;;;;;;;22.33;66.94;100821.88;10459085;28;20051;-63
2021/07/24 10:58:22;;;;;;;14.40;11.25;;;;;;;22.32;67.46;100825.53;10458490;28;20055;-62
2021/07/24 11:03:37;;;;;;;11.20;9.82;;;;;;;22.38;68.95;100823.03;10458509;28;20045;-63
2021/07/24 11:09:02;;;;;;;16.30;11.02;;;;;;;22.16;65.73;100818.31;10458239;28;20049;-62
2021/07/24 11:14:04;;;;;;;14.48;11.43;;;;;;;22.11;67.02;100809.94;10458346;28;20052;-63
2021/07/24 11:19:20;;;;;;;19.10;10.85;;;;;;;22.29;67.61;100813.34;10457679;28;20129;-62
2021/07/24 11:24:22;;;;;;;16.75;11.27;;;;;;;22.40;67.97;100822.88;10457806;28;20045;-61
2021/07/24 11:29:24;;;;;;;16.52;10.93;;;;;;;22.37;67.96;100825.88;10457327;28;20052;-61
2021/07/24 11:34:29;;;;;;;13.02;11.63;;;;;;;22.35;68.52;100834.03;10457698;28;20053;-62
2021/07/24 11:39:33;;;;;;;15.48;12.80;;;;;;;22.11;66.59;100834.78;10457074;28;20071;-62
2021/07/24 11:44:35;;;;;;;18.10;12.10;;;;;;;22.35;68.77;100841.22;10456843;28;20052;-61
2021/07/24 11:49:37;;;;;;;16.48;13.15;;;;;;;22.20;67.49;100846.31;10456026;28;20060;-62
2021/07/24 11:54:40;;;;;;;17.02;11.73;;;;;;;22.02;71.40;100846.41;10457356;28;20049;-62
2021/07/24 11:59:42;;;;;;;15.90;13.27;;;;;;;22.35;66.80;100847.38;10456861;28;20044;-61
2021/07/24 12:04:48;;;;;;;16.88;12.15;;;;;;;22.20;70.03;100852.47;10456600;28;20045;-61
2021/07/24 12:09:54;;;;;;;18.25;12.63;;;;;;;22.21;70.17;100850.66;10455014;28;20044;-62
2021/07/24 12:14:56;;;;;;;14.65;11.20;;;;;;;22.23;70.66;100851.31;10463396;28;20052;-61
2021/07/24 12:20:12;;;;;;;13.95;11.32;;;;;;;22.07;71.56;100858.28;10463841;28;20056;-61
2021/07/24 12:25:15;;;;;;;15.93;12.00;;;;;;;21.76;72.60;100854.50;10464817;28;20049;-60
2021/07/24 12:30:27;;;;;;;14.13;12.50;;;;;;;21.75;72.69;100852.81;10464132;28;20080;-61
2021/07/24 12:35:30;;;;;;;11.55;10.07;;;;;;;21.85;72.84;100849.00;10463085;28;20045;-63
2021/07/24 12:40:32;;;;;;;14.38;11.75;;;;;;;21.78;72.51;100845.34;10446231;28;20045;-61
2021/07/24 12:45:35;;;;;;;13.73;10.80;;;;;;;22.27;71.26;100832.16;10464142;28;20064;-61
2021/07/24 12:50:37;;;;;;;19.85;13.18;;;;;;;21.86;73.72;100825.88;10463758;28;20049;-62
2021/07/24 12:55:39;;;;;;;15.00;12.13;;;;;;;22.24;71.38;100826.31;10463271;28;20422;-62
2021/07/24 13:00:42;;;;;;;14.63;10.45;;;;;;;22.69;71.44;100824.22;10463363;28;20048;-61
2021/07/24 13:05:44;;;;;;;17.65;13.48;;;;;;;22.71;67.21;100811.53;10463210;28;20076;-63
2021/07/24 13:10:46;;;;;;;18.50;15.85;;;;;;;22.61;65.57;100809.88;10462758;28;20045;-61
2021/07/24 13:15:49;;;;;;;18.58;13.55;;;;;;;22.94;66.43;100811.69;10461509;28;20390;-60
2021/07/24 13:20:51;;;;;;;17.42;14.57;;;;;;;22.59;67.15;100803.03;10463010;28;20049;-61
2021/07/24 13:28:13;;;;;;;18.55;13.75;;;;;;;23.04;66.19;100820.38;10461777;28;20049;-61
2021/07/24 13:31:28;;;;;;;20.85;13.90;;;;;;;23.21;66.67;100818.53;10461747;28;20056;-62
2021/07/24 13:36:32;;;;;;;17.48;12.88;;;;;;;23.08;66.75;100804.88;10460416;28;20045;-62
2021/07/24 13:41:35;;;;;;;18.88;15.20;;;;;;;22.58;65.57;100812.06;10462124;28;20056;-62
2021/07/24 13:46:37;;;;;;;19.75;14.02;;;;;;;22.33;66.24;100812.03;10461495;28;20124;-61
2021/07/24 13:51:40;;;;;;;19.25;13.57;;;;;;;22.36;67.28;100818.84;10461565;28;20393;-61
2021/07/24 13:56:42;;;;;;;14.13;12.63;;;;;;;22.72;67.83;100821.22;10460969;28;20447;-62
2021/07/24 14:01:45;;;;;;;16.00;12.75;;;;;;;22.71;66.52;100822.22;10443546;28;20045;-64
2021/07/24 14:06:47;;;;;;;17.05;11.73;;;;;;;22.61;67.83;100814.38;10460830;28;20049;-64
2021/07/24 14:11:51;;;;;;;15.60;10.40;;;;;;;22.52;69.37;100818.88;10460586;28;20470;-64
2021/07/24 14:16:53;;;;;;;29.00;10.60;;;;;;;22.42;70.44;100815.53;10460394;28;20048;-63
2021/07/24 14:21:55;;;;;;;14.30;12.20;;;;;;;22.75;66.48;100819.06;10460220;28;20406;-64
2021/07/24 14:26:58;;;;;;;15.15;12.07;;;;;;;22.21;70.20;100814.16;10460460;28;20440;-64
2021/07/24 14:32:00;;;;;;;18.98;14.73;;;;;;;22.21;69.71;100810.66;10459429;28;20060;-64
2021/07/24 14:37:03;;;;;;;21.17;15.77;;;;;;;21.99;67.34;100815.59;10458550;28;20049;-65
2021/07/24 14:42:06;;;;;;;16.88;12.95;;;;;;;21.95;70.85;100824.06;10458917;28;20077;-64
2021/07/24 14:47:09;;;;;;;15.73;12.63;;;;;;;21.93;71.87;100828.75;10458466;28;20057;-64
2021/07/24 14:52:11;;;;;;;17.75;12.27;;;;;;;21.91;72.49;100838.75;10458802;28;20045;-63
2021/07/24 14:57:14;;;;;;;19.25;13.52;;;;;;;21.65;73.04;100860.91;10458900;28;20045;-60
2021/07/24 15:02:16;;;;;;;16.80;12.05;;;;;;;21.78;73.84;100861.31;10458694;28;20045;-61
2021/07/24 15:07:19;;;;;;;19.17;15.55;;;;;;;21.74;71.67;100870.63;10458620;28;20080;-61
2021/07/24 15:12:24;;;;;;;18.83;15.30;;;;;;;21.69;72.50;100868.44;10457015;28;20045;-61
2021/07/24 15:17:27;;;;;;;21.35;14.18;;;;;;;21.80;74.09;100872.66;10458261;28;20053;-61
2021/07/24 15:22:29;;;;;;;16.00;13.32;;;;;;;21.42;75.19;100874.75;10457773;28;20505;-62
2021/07/24 15:27:32;;;;;;;18.52;13.52;;;;;;;21.71;74.13;100860.28;10457199;28;20551;-61
2021/07/24 15:32:35;;;;;;;22.05;16.77;;;;;;;21.86;71.30;100849.88;10457444;28;20405;-62
2021/07/24 15:37:41;;;;;;;22.05;17.58;;;;;;;21.64;71.04;100849.44;10457324;28;20063;-63
2021/07/24 15:42:44;;;;;;;20.52;14.65;;;;;;;21.55;72.97;100841.56;10457530;28;20051;-61
2021/07/24 15:47:46;;;;;;;21.02;14.82;;;;;;;21.51;73.03;100815.25;10456742;28;20052;-64
2021/07/24 15:52:48;;;;;;;27.65;18.80;;;;;;;21.33;72.21;100804.66;10456561;28;20455;-63
2021/07/24 15:57:51;;;;;;;18.80;16.90;;;;;;;21.84;72.11;100801.22;10456779;28;20052;-62
2021/07/24 16:02:53;;;;;;;22.83;17.75;;;;;;;21.75;71.96;100792.34;10456776;28;20070;-63
2021/07/24 16:07:56;;;;;;;24.42;16.95;;;;;;;21.62;71.23;100803.47;10456410;28;20089;-65
2021/07/24 16:13:00;;;;;;;20.52;14.77;;;;;;;21.49;70.88;100782.59;10456450;28;20489;-63
2021/07/24 16:18:02;;;;;;;18.27;14.88;;;;;;;21.54;71.39;100773.31;10455182;28;20052;-64
2021/07/24 16:23:05;;;;;;;19.02;14.05;;;;;;;21.83;71.27;100771.06;10455219;28;20041;-64
2021/07/24 16:28:08;;;;;;;20.20;14.57;;;;;;;21.82;72.06;100779.22;10438254;28;20378;-65
2021/07/24 16:33:10;;;;;;;21.33;15.07;;;;;;;21.79;70.64;100774.25;10455929;28;20049;-65
2021/07/24 16:38:12;;;;;;;16.42;14.60;;;;;;;21.54;71.52;100766.16;10456975;28;20057;-65
2021/07/24 16:43:15;;;;;;;17.52;15.70;;;;;;;21.39;71.01;100765.88;10455024;28;20061;-64
2021/07/24 16:48:17;;;;;;;21.45;15.98;;;;;;;21.43;71.08;100761.06;10455685;28;20045;-63
2021/07/24 16:53:19;;;;;;;26.02;18.88;;;;;;;21.62;69.40;100754.66;10454777;28;20041;-64
2021/07/24 16:58:22;;;;;;;28.70;19.27;;;;;;;21.58;70.50;100745.34;10457154;28;20045;-63
2021/07/24 17:03:24;;;;;;;23.73;18.88;;;;;;;21.48;70.49;100735.66;10462014;28;20481;-63
2021/07/24 17:08:27;;;;;;;37.15;24.65;;;;;;;21.23;70.63;100728.53;10462887;28;20127;-65
2021/07/24 17:13:29;;;;;;;26.00;19.40;;;;;;;21.24;71.38;100728.38;10463002;28;20045;-64
2021/07/24 17:18:31;;;;;;;27.10;21.75;;;;;;;21.28;70.83;100732.41;10461575;28;20056;-64
2021/07/24 17:23:34;;;;;;;30.98;23.30;;;;;;;20.98;71.87;100731.09;10461385;28;20049;-63
2021/07/24 17:28:37;;;;;;;24.02;19.58;;;;;;;21.24;71.46;100724.88;10462104;28;20471;-64
2021/07/24 17:33:40;;;;;;;19.75;17.42;;;;;;;21.20;72.21;100724.38;10462179;28;20052;-64
2021/07/24 17:38:44;;;;;;;29.67;18.38;;;;;;;21.33;71.77;100724.75;10462694;28;20060;-63
2021/07/24 17:43:50;;;;;;;20.60;18.35;;;;;;;21.26;72.70;100741.53;10461860;28;20056;-63
2021/07/24 17:48:52;;;;;;;25.20;18.52;;;;;;;21.15;73.32;100742.66;10461563;28;20053;-63
2021/07/24 17:53:57;;;;;;;25.92;21.08;;;;;;;21.12;72.78;100727.81;10460490;28;20045;-64
2021/07/24 17:59:00;;;;;;;26.15;20.52;;;;;;;20.95;71.75;100721.56;10461034;28;20057;-64
2021/07/24 18:04:02;;;;;;;34.30;19.60;;;;;;;21.10;72.70;100721.00;10460887;28;20442;-64
2021/07/24 18:09:05;;;;;;;21.25;16.35;;;;;;;21.17;71.95;100726.53;10460326;28;20408;-63
2021/07/24 18:14:07;;;;;;;20.20;15.95;;;;;;;20.85;72.95;100723.50;10460952;28;20128;-64
2021/07/24 18:19:09;;;;;;;21.08;16.60;;;;;;;20.61;73.94;100724.16;10460293;28;20048;-64
2021/07/24 18:24:12;;;;;;;18.75;13.98;;;;;;;20.60;72.97;100723.31;10460227;28;20049;-63
2021/07/24 18:29:14;;;;;;;19.95;15.68;;;;;;;20.29;73.97;100722.91;10459565;28;20401;-64
2021/07/24 18:34:17;;;;;;;19.13;13.95;;;;;;;20.33;75.34;100728.75;10459796;28;20064;-64
2021/07/24 18:39:20;;;;;;;20.33;14.73;;;;;;;20.33;74.07;100728.75;10459906;28;20059;-62
2021/07/24 18:44:26;;;;;;;17.15;14.25;;;;;;;20.28;75.25;100705.28;10459404;28;20060;-64
2021/07/24 18:49:28;;;;;;;19.42;15.00;;;;;;;20.31;75.02;100697.00;10459141;28;20056;-64
2021/07/24 18:54:31;;;;;;;19.67;15.20;;;;;;;20.36;74.63;100699.22;10459052;28;20049;-64
2021/07/24 18:59:33;;;;;;;20.90;14.80;;;;;;;20.22;75.07;100700.56;10457382;28;20516;-64
2021/07/24 19:04:35;;;;;;;19.00;15.32;;;;;;;20.10;75.55;100725.72;10440888;28;20493;-65
2021/07/24 19:09:38;;;;;;;17.65;13.60;;;;;;;19.81;76.91;100750.69;10458026;28;20531;-63
2021/07/24 19:14:41;;;;;;;16.77;13.63;;;;;;;19.82;76.70;100755.84;10458274;28;20053;-65
2021/07/24 19:19:43;;;;;;;19.17;14.52;;;;;;;19.73;77.35;100764.66;10458050;28;20088;-65
2021/07/24 19:24:46;;;;;;;16.05;13.88;;;;;;;19.95;77.01;100767.91;10457332;28;20053;-63
2021/07/24 19:29:48;;;;;;;22.55;14.48;;;;;;;19.57;78.52;100767.97;10457419;28;20045;-64
2021/07/24 19:34:50;;;;;;;16.00;13.75;;;;;;;19.40;79.19;100777.56;10457692;28;20052;-64
2021/07/24 19:39:52;;;;;;;24.55;14.57;;;;;;;19.35;79.02;100789.56;10456787;28;20060;-65
2021/07/24 19:44:55;;;;;;;17.45;14.77;;;;;;;19.31;79.88;100799.66;10457033;28;20382;-64
2021/07/24 19:49:58;;;;;;;19.08;17.05;;;;;;;19.57;77.76;100794.53;10456826;28;20496;-64
2021/07/24 19:55:00;;;;;;;18.60;15.90;;;;;;;19.48;78.66;100796.25;10456907;28;20048;-63
2021/07/24 20:00:04;;;;;;;18.13;15.00;;;;;;;19.49;78.81;100808.53;10456736;28;20398;-63
2021/07/24 20:05:07;;;;;;;18.88;14.55;;;;;;;19.38;79.19;100816.66;10456618;28;20048;-63
2021/07/24 20:10:10;;;;;;;19.70;14.32;;;;;;;19.31;79.12;100815.56;10456568;28;20041;-63
2021/07/24 20:15:17;;;;;;;21.48;16.23;;;;;;;19.39;78.51;100810.38;10456353;28;20051;-63
2021/07/24 20:20:20;;;;;;;21.40;16.48;;;;;;;19.37;78.27;100799.06;10456276;28;20052;-65
2021/07/24 20:25:23;;;;;;;30.05;19.77;;;;;;;19.34;78.20;100794.06;10456211;28;20123;-63
2021/07/24 20:30:25;;;;;;;21.13;17.77;;;;;;;19.27;78.23;100814.22;10455819;28;20511;-63
2021/07/24 20:35:29;;;;;;;23.40;19.63;;;;;;;19.18;78.71;100805.28;10461404;28;20045;-63
2021/07/24 20:40:31;;;;;;;26.00;18.17;;;;;;;18.78;80.25;100826.66;10462823;28;20574;-64
2021/07/24 20:45:34;;;;;;;19.25;16.50;;;;;;;18.85;80.23;100831.31;10463644;28;20059;-63
2021/07/24 20:50:36;;;;;;;22.15;18.50;;;;;;;18.44;82.21;100832.41;10463029;28;20080;-64
2021/07/24 20:55:38;;;;;;;26.52;19.00;;;;;;;18.46;82.08;100828.66;10463591;28;20128;-64
2021/07/24 21:00:41;;;;;;;22.40;18.50;;;;;;;18.44;81.84;100817.34;10462444;28;20049;-63
2021/07/24 21:05:45;;;;;;;26.02;19.80;;;;;;;18.15;83.23;100812.00;10462516;28;20049;-63
2021/07/24 21:10:49;;;;;;;25.23;20.50;;;;;;;18.21;83.37;100803.50;10462966;28;20056;-63
2021/07/24 21:15:59;;;;;;;26.15;22.17;;;;;;;18.05;83.81;100782.00;10463316;28;20052;-64
2021/07/24 21:21:01;;;;;;;25.48;20.42;;;;;;;18.17;82.93;100780.91;10462830;28;20056;-62
2021/07/24 21:26:04;;;;;;;22.08;19.13;;;;;;;18.22;82.71;100783.13;10463007;28;20059;-64
2021/07/24 21:31:06;;;;;;;26.20;19.42;;;;;;;18.10;82.86;100763.88;10461216;28;20457;-62
2021/07/24 21:36:09;;;;;;;29.23;22.30;;;;;;;18.08;82.96;100771.97;10462626;28;20041;-63
2021/07/24 21:41:12;;;;;;;25.98;21.45;;;;;;;17.90;82.66;100763.84;10461808;28;20440;-62
2021/07/24 21:46:14;;;;;;;28.08;22.65;;;;;;;17.81;83.73;100752.22;10461126;28;20049;-63
2021/07/24 21:51:22;;;;;;;28.20;22.73;;;;;;;17.84;83.77;100745.84;10461574;28;20041;-63
2021/07/24 21:56:24;;;;;;;33.13;24.10;;;;;;;17.84;84.00;100748.50;10461434;28;20052;-63
2021/07/24 22:01:27;;;;;;;27.63;22.63;;;;;;;17.90;83.90;100733.88;10461645;28;20053;-63
2021/07/24 22:06:29;;;;;;;28.17;22.50;;;;;;;18.19;82.22;100747.19;10460976;28;20049;-64
2021/07/24 22:11:32;;;;;;;25.48;20.67;;;;;;;17.97;83.77;100759.69;10460551;28;20053;-63
2021/07/24 22:16:34;;;;;;;32.90;24.42;;;;;;;17.97;84.31;100765.00;10460459;28;20049;-63
2021/07/24 22:21:36;;;;;;;27.38;21.00;;;;;;;17.97;83.34;100761.50;10460436;28;20060;-61
2021/07/24 22:26:39;;;;;;;25.85;19.20;;;;;;;18.11;82.50;100778.81;10460546;28;20041;-63
2021/07/24 22:31:42;;;;;;;31.42;24.45;;;;;;;18.50;81.42;100771.72;10460176;28;20053;-63
2021/07/24 22:36:44;;;;;;;26.55;21.70;;;;;;;18.59;78.98;100777.16;10458991;28;20053;-62
2021/07/24 22:41:47;;;;;;;28.95;22.55;;;;;;;18.69;79.85;100772.66;10459678;28;20049;-62
2021/07/24 22:46:50;;;;;;;30.15;23.65;;;;;;;18.57;80.55;100778.13;10458468;28;20045;-63
2021/07/24 22:51:52;;;;;;;28.45;22.90;;;;;;;18.82;79.71;100775.88;10459204;28;20128;-64